Terminal Aerodrome Forecast
Issued by NWS Topeka, KS

Home | Current Version | Previous Version | Text Only | Print | Product List | Glossary Off
Versions: 1 2 3 4 5 6 7 8 9 10 11 12 13 14 15

000
FTUS43 KTOP 121727
TAFTOP
TAF
KTOP 121727Z 1218/1318 30006KT P6SM FEW035
     FM122300 22004KT P6SM SKC
     FM131400 28010KT P6SM FEW200=

USA.gov is the U.S. government's official web portal to all federal, state and local government web resources and services.